sensor_id;sensor_type;location;lat;lon;timestamp;temperature;humidity
20349;DHT22;10332;50.208;18.988;2023-07-29T00:01:09;19.30;99.90
20349;DHT22;10332;50.208;18.988;2023-07-29T00:03:36;19.30;99.90
20349;DHT22;10332;50.208;18.988;2023-07-29T00:06:04;19.30;99.90
20349;DHT22;10332;50.208;18.988;2023-07-29T00:08:32;19.20;99.90
20349;DHT22;10332;50.208;18.988;2023-07-29T00:10:59;19.20;99.90
20349;DHT22;10332;50.208;18.988;2023-07-29T00:13:27;19.20;99.90
20349;DHT22;10332;50.208;18.988;2023-07-29T00:15:55;19.20;99.90
20349;DHT22;10332;50.208;18.988;2023-07-29T00:18:22;19.20;99.90
20349;DHT22;10332;50.208;18.988;2023-07-29T00:20:50;19.20;99.90
20349;DHT22;10332;50.208;18.988;2023-07-29T00:23:18;19.20;99.90
20349;DHT22;10332;50.208;18.988;2023-07-29T00:25:48;19.20;99.90
20349;DHT22;10332;50.208;18.988;2023-07-29T00:28:16;19.10;99.90
20349;DHT22;10332;50.208;18.988;2023-07-29T00:30:46;19.10;99.90
20349;DHT22;10332;50.208;18.988;2023-07-29T00:33:13;19.10;99.90
20349;DHT22;10332;50.208;18.988;2023-07-29T00:35:41;19.10;99.90
20349;DHT22;10332;50.208;18.988;2023-07-29T00:38:08;19.10;99.90
20349;DHT22;10332;50.208;18.988;2023-07-29T00:40:36;19.00;99.90
20349;DHT22;10332;50.208;18.988;2023-07-29T00:43:04;19.00;99.90
20349;DHT22;10332;50.208;18.988;2023-07-29T00:45:32;19.00;99.90
20349;DHT22;10332;50.208;18.988;2023-07-29T00:48:02;19.00;99.90
20349;DHT22;10332;50.208;18.988;2023-07-29T00:50:31;19.00;99.90
20349;DHT22;10332;50.208;18.988;2023-07-29T00:52:59;19.00;99.90
20349;DHT22;10332;50.208;18.988;2023-07-29T00:55:28;19.10;99.90
20349;DHT22;10332;50.208;18.988;2023-07-29T00:57:56;19.00;99.90
20349;DHT22;10332;50.208;18.988;2023-07-29T01:00:25;19.10;99.90
20349;DHT22;10332;50.208;18.988;2023-07-29T01:02:52;19.10;99.90
20349;DHT22;10332;50.208;18.988;2023-07-29T01:05:23;19.10;99.90
20349;DHT22;10332;50.208;18.988;2023-07-29T01:08:03;19.10;99.90
20349;DHT22;10332;50.208;18.988;2023-07-29T01:10:54;19.10;99.90
20349;DHT22;10332;50.208;18.988;2023-07-29T01:14:04;19.10;99.90
20349;DHT22;10332;50.208;18.988;2023-07-29T01:16:56;19.10;99.90
20349;DHT22;10332;50.208;18.988;2023-07-29T01:19:42;19.00;99.90
20349;DHT22;10332;50.208;18.988;2023-07-29T01:22:13;19.10;99.90
20349;DHT22;10332;50.208;18.988;2023-07-29T01:24:40;19.10;99.90
20349;DHT22;10332;50.208;18.988;2023-07-29T01:27:08;19.10;99.90
20349;DHT22;10332;50.208;18.988;2023-07-29T01:29:35;19.10;99.90
20349;DHT22;10332;50.208;18.988;2023-07-29T01:35:01;19.10;99.90
20349;DHT22;10332;50.208;18.988;2023-07-29T01:37:37;19.00;99.90
20349;DHT22;10332;50.208;18.988;2023-07-29T01:40:08;19.10;99.90
20349;DHT22;10332;50.208;18.988;2023-07-29T01:42:37;19.10;99.90
20349;DHT22;10332;50.208;18.988;2023-07-29T01:45:05;19.10;99.90
20349;DHT22;10332;50.208;18.988;2023-07-29T01:47:33;19.10;99.90
20349;DHT22;10332;50.208;18.988;2023-07-29T01:50:00;19.10;99.90
20349;DHT22;10332;50.208;18.988;2023-07-29T01:52:28;19.10;99.90
20349;DHT22;10332;50.208;18.988;2023-07-29T01:54:55;19.20;99.90
20349;DHT22;10332;50.208;18.988;2023-07-29T01:57:23;19.20;99.90
20349;DHT22;10332;50.208;18.988;2023-07-29T01:59:50;19.20;99.90
20349;DHT22;10332;50.208;18.988;2023-07-29T02:02:18;19.20;99.90
20349;DHT22;10332;50.208;18.988;2023-07-29T02:04:45;19.20;99.90
20349;DHT22;10332;50.208;18.988;2023-07-29T02:07:18;19.20;99.90
20349;DHT22;10332;50.208;18.988;2023-07-29T02:09:46;19.20;99.90
20349;DHT22;10332;50.208;18.988;2023-07-29T02:12:14;19.10;99.90
20349;DHT22;10332;50.208;18.988;2023-07-29T02:14:41;19.10;99.90
20349;DHT22;10332;50.208;18.988;2023-07-29T02:17:09;19.10;99.90
20349;DHT22;10332;50.208;18.988;2023-07-29T02:19:36;19.10;99.90
20349;DHT22;10332;50.208;18.988;2023-07-29T02:22:04;19.10;99.90
20349;DHT22;10332;50.208;18.988;2023-07-29T02:24:31;19.10;99.90
20349;DHT22;10332;50.208;18.988;2023-07-29T02:26:59;19.10;99.90
20349;DHT22;10332;50.208;18.988;2023-07-29T02:29:26;19.10;99.90
20349;DHT22;10332;50.208;18.988;2023-07-29T02:31:54;19.10;99.90
20349;DHT22;10332;50.208;18.988;2023-07-29T02:34:21;19.10;99.90
20349;DHT22;10332;50.208;18.988;2023-07-29T02:36:49;19.00;99.90
20349;DHT22;10332;50.208;18.988;2023-07-29T02:39:16;19.00;99.90
20349;DHT22;10332;50.208;18.988;2023-07-29T02:41:44;19.00;99.90
20349;DHT22;10332;50.208;18.988;2023-07-29T02:44:11;19.00;99.90
20349;DHT22;10332;50.208;18.988;2023-07-29T02:46:39;19.00;99.90
20349;DHT22;10332;50.208;18.988;2023-07-29T02:49:06;19.00;99.90
20349;DHT22;10332;50.208;18.988;2023-07-29T02:51:34;19.00;99.90
20349;DHT22;10332;50.208;18.988;2023-07-29T02:54:01;18.90;99.90
20349;DHT22;10332;50.208;18.988;2023-07-29T02:56:29;18.90;99.90
20349;DHT22;10332;50.208;18.988;2023-07-29T02:58:57;18.90;99.90
20349;DHT22;10332;50.208;18.988;2023-07-29T03:01:25;18.90;99.90
20349;DHT22;10332;50.208;18.988;2023-07-29T03:03:53;18.90;99.90
20349;DHT22;10332;50.208;18.988;2023-07-29T03:06:20;18.90;99.90
20349;DHT22;10332;50.208;18.988;2023-07-29T03:08:48;18.90;99.90
20349;DHT22;10332;50.208;18.988;2023-07-29T03:11:16;18.90;99.90
20349;DHT22;10332;50.208;18.988;2023-07-29T03:13:43;18.90;99.90
20349;DHT22;10332;50.208;18.988;2023-07-29T03:18:42;18.90;99.90
20349;DHT22;10332;50.208;18.988;2023-07-29T03:21:11;18.90;99.90
20349;DHT22;10332;50.208;18.988;2023-07-29T03:23:38;18.90;99.90
20349;DHT22;10332;50.208;18.988;2023-07-29T03:26:06;18.90;99.90
20349;DHT22;10332;50.208;18.988;2023-07-29T03:28:43;18.90;99.90
20349;DHT22;10332;50.208;18.988;2023-07-29T03:31:11;18.90;99.90
20349;DHT22;10332;50.208;18.988;2023-07-29T03:33:38;18.90;99.90
20349;DHT22;10332;50.208;18.988;2023-07-29T03:36:06;18.90;99.90
20349;DHT22;10332;50.208;18.988;2023-07-29T03:38:33;18.90;99.90
20349;DHT22;10332;50.208;18.988;2023-07-29T03:41:02;18.90;99.90
20349;DHT22;10332;50.208;18.988;2023-07-29T03:43:30;18.90;99.90
20349;DHT22;10332;50.208;18.988;2023-07-29T03:45:58;18.90;99.90
20349;DHT22;10332;50.208;18.988;2023-07-29T03:48:25;18.90;99.90
20349;DHT22;10332;50.208;18.988;2023-07-29T03:50:53;18.90;99.90
20349;DHT22;10332;50.208;18.988;2023-07-29T03:53:21;18.90;99.90
20349;DHT22;10332;50.208;18.988;2023-07-29T03:55:49;19.00;99.90
20349;DHT22;10332;50.208;18.988;2023-07-29T03:58:17;19.10;99.90
20349;DHT22;10332;50.208;18.988;2023-07-29T04:00:44;19.10;99.90
20349;DHT22;10332;50.208;18.988;2023-07-29T04:03:12;19.10;99.90
20349;DHT22;10332;50.208;18.988;2023-07-29T04:05:39;19.20;99.90
20349;DHT22;10332;50.208;18.988;2023-07-29T04:08:07;19.20;99.90
20349;DHT22;10332;50.208;18.988;2023-07-29T04:10:34;19.30;99.90
20349;DHT22;10332;50.208;18.988;2023-07-29T04:13:02;19.30;99.90
20349;DHT22;10332;50.208;18.988;2023-07-29T04:15:29;19.40;99.90
20349;DHT22;10332;50.208;18.988;2023-07-29T04:17:57;19.40;99.90
20349;DHT22;10332;50.208;18.988;2023-07-29T04:20:25;19.40;99.90
20349;DHT22;10332;50.208;18.988;2023-07-29T04:22:52;19.40;99.90
20349;DHT22;10332;50.208;18.988;2023-07-29T04:25:20;19.50;99.90
20349;DHT22;10332;50.208;18.988;2023-07-29T04:27:47;19.50;99.90
20349;DHT22;10332;50.208;18.988;2023-07-29T04:30:15;19.50;99.90
20349;DHT22;10332;50.208;18.988;2023-07-29T04:32:42;19.50;99.90
20349;DHT22;10332;50.208;18.988;2023-07-29T04:35:12;19.60;99.90
20349;DHT22;10332;50.208;18.988;2023-07-29T04:37:39;19.60;99.90
20349;DHT22;10332;50.208;18.988;2023-07-29T04:40:08;19.60;99.90
20349;DHT22;10332;50.208;18.988;2023-07-29T04:42:36;19.70;99.90
20349;DHT22;10332;50.208;18.988;2023-07-29T04:45:04;19.70;99.90
20349;DHT22;10332;50.208;18.988;2023-07-29T04:47:32;19.70;99.90
20349;DHT22;10332;50.208;18.988;2023-07-29T04:50:00;19.60;99.90
20349;DHT22;10332;50.208;18.988;2023-07-29T04:52:27;19.70;99.90
20349;DHT22;10332;50.208;18.988;2023-07-29T04:54:55;19.70;99.90
20349;DHT22;10332;50.208;18.988;2023-07-29T04:57:22;19.70;99.90
20349;DHT22;10332;50.208;18.988;2023-07-29T04:59:50;19.70;99.90
20349;DHT22;10332;50.208;18.988;2023-07-29T05:02:17;19.70;99.90
20349;DHT22;10332;50.208;18.988;2023-07-29T05:04:45;19.70;99.90
20349;DHT22;10332;50.208;18.988;2023-07-29T05:07:12;19.70;99.90
20349;DHT22;10332;50.208;18.988;2023-07-29T05:09:40;19.80;99.90
20349;DHT22;10332;50.208;18.988;2023-07-29T05:12:08;19.80;99.90
20349;DHT22;10332;50.208;18.988;2023-07-29T05:14:36;19.80;99.90
20349;DHT22;10332;50.208;18.988;2023-07-29T05:17:03;19.90;99.90
20349;DHT22;10332;50.208;18.988;2023-07-29T05:19:31;19.90;99.90
20349;DHT22;10332;50.208;18.988;2023-07-29T05:21:58;20.00;99.90
20349;DHT22;10332;50.208;18.988;2023-07-29T05:24:26;20.10;99.90
20349;DHT22;10332;50.208;18.988;2023-07-29T05:26:53;20.10;99.90
20349;DHT22;10332;50.208;18.988;2023-07-29T05:29:21;20.20;99.90
20349;DHT22;10332;50.208;18.988;2023-07-29T05:31:48;20.20;99.90
20349;DHT22;10332;50.208;18.988;2023-07-29T05:34:16;20.20;99.90
20349;DHT22;10332;50.208;18.988;2023-07-29T05:36:43;20.30;99.90
20349;DHT22;10332;50.208;18.988;2023-07-29T05:39:11;20.30;99.90
20349;DHT22;10332;50.208;18.988;2023-07-29T05:41:39;20.40;99.90
20349;DHT22;10332;50.208;18.988;2023-07-29T05:44:06;20.50;99.90
20349;DHT22;10332;50.208;18.988;2023-07-29T05:46:37;20.60;99.90
20349;DHT22;10332;50.208;18.988;2023-07-29T05:49:05;20.70;99.90
20349;DHT22;10332;50.208;18.988;2023-07-29T05:51:32;20.70;99.90
20349;DHT22;10332;50.208;18.988;2023-07-29T05:54:00;20.80;99.90
20349;DHT22;10332;50.208;18.988;2023-07-29T05:56:27;20.80;99.90
20349;DHT22;10332;50.208;18.988;2023-07-29T05:58:54;20.90;99.90
20349;DHT22;10332;50.208;18.988;2023-07-29T06:01:22;21.00;99.90
20349;DHT22;10332;50.208;18.988;2023-07-29T06:03:50;21.00;99.90
20349;DHT22;10332;50.208;18.988;2023-07-29T06:06:17;21.00;99.90
20349;DHT22;10332;50.208;18.988;2023-07-29T06:08:45;21.10;99.90
20349;DHT22;10332;50.208;18.988;2023-07-29T06:11:12;21.10;99.90
20349;DHT22;10332;50.208;18.988;2023-07-29T06:13:40;21.20;99.90
20349;DHT22;10332;50.208;18.988;2023-07-29T06:16:07;21.20;99.90
20349;DHT22;10332;50.208;18.988;2023-07-29T06:18:34;21.30;99.90
20349;DHT22;10332;50.208;18.988;2023-07-29T06:21:02;21.40;99.90
20349;DHT22;10332;50.208;18.988;2023-07-29T06:23:34;21.50;99.90
20349;DHT22;10332;50.208;18.988;2023-07-29T06:26:02;21.70;99.90
20349;DHT22;10332;50.208;18.988;2023-07-29T06:28:29;21.80;99.90
20349;DHT22;10332;50.208;18.988;2023-07-29T06:30:57;21.90;99.90
20349;DHT22;10332;50.208;18.988;2023-07-29T06:33:24;22.10;99.90
20349;DHT22;10332;50.208;18.988;2023-07-29T06:35:52;22.10;99.90
20349;DHT22;10332;50.208;18.988;2023-07-29T06:38:20;22.10;99.90
20349;DHT22;10332;50.208;18.988;2023-07-29T06:40:49;22.20;99.90
20349;DHT22;10332;50.208;18.988;2023-07-29T06:43:17;22.30;99.90
20349;DHT22;10332;50.208;18.988;2023-07-29T06:45:44;22.40;99.90
20349;DHT22;10332;50.208;18.988;2023-07-29T06:48:12;22.50;99.90
20349;DHT22;10332;50.208;18.988;2023-07-29T06:50:39;22.70;99.90
20349;DHT22;10332;50.208;18.988;2023-07-29T06:53:07;22.80;99.90
20349;DHT22;10332;50.208;18.988;2023-07-29T06:55:36;23.00;99.90
20349;DHT22;10332;50.208;18.988;2023-07-29T06:58:04;23.00;99.90
20349;DHT22;10332;50.208;18.988;2023-07-29T07:00:31;23.10;99.80
20349;DHT22;10332;50.208;18.988;2023-07-29T07:02:59;23.20;98.60
20349;DHT22;10332;50.208;18.988;2023-07-29T07:05:26;23.30;98.40
20349;DHT22;10332;50.208;18.988;2023-07-29T07:07:54;23.50;97.80
20349;DHT22;10332;50.208;18.988;2023-07-29T07:10:21;23.50;95.30
20349;DHT22;10332;50.208;18.988;2023-07-29T07:12:49;23.50;94.30
20349;DHT22;10332;50.208;18.988;2023-07-29T07:15:16;23.40;93.30
20349;DHT22;10332;50.208;18.988;2023-07-29T07:17:44;23.40;94.20
20349;DHT22;10332;50.208;18.988;2023-07-29T07:20:12;23.30;94.90
20349;DHT22;10332;50.208;18.988;2023-07-29T07:22:40;23.30;94.10
20349;DHT22;10332;50.208;18.988;2023-07-29T07:25:07;23.30;94.80
20349;DHT22;10332;50.208;18.988;2023-07-29T07:27:36;23.40;94.90
20349;DHT22;10332;50.208;18.988;2023-07-29T07:30:04;23.60;93.80
20349;DHT22;10332;50.208;18.988;2023-07-29T07:32:32;23.70;93.00
20349;DHT22;10332;50.208;18.988;2023-07-29T07:35:00;23.90;92.20
20349;DHT22;10332;50.208;18.988;2023-07-29T07:37:28;23.90;89.80
20349;DHT22;10332;50.208;18.988;2023-07-29T07:39:56;23.90;89.40
20349;DHT22;10332;50.208;18.988;2023-07-29T07:42:23;24.00;86.90
20349;DHT22;10332;50.208;18.988;2023-07-29T07:44:51;24.10;87.30
20349;DHT22;10332;50.208;18.988;2023-07-29T07:47:18;24.10;87.10
20349;DHT22;10332;50.208;18.988;2023-07-29T07:49:46;24.30;86.50
20349;DHT22;10332;50.208;18.988;2023-07-29T07:52:13;24.60;86.30
20349;DHT22;10332;50.208;18.988;2023-07-29T07:54:41;25.00;82.30
20349;DHT22;10332;50.208;18.988;2023-07-29T07:57:08;25.20;79.20
20349;DHT22;10332;50.208;18.988;2023-07-29T07:59:36;25.30;73.10
20349;DHT22;10332;50.208;18.988;2023-07-29T08:02:03;25.10;69.70
20349;DHT22;10332;50.208;18.988;2023-07-29T08:04:31;25.20;73.10
20349;DHT22;10332;50.208;18.988;2023-07-29T08:06:58;25.50;71.80
20349;DHT22;10332;50.208;18.988;2023-07-29T08:09:26;25.50;68.70
20349;DHT22;10332;50.208;18.988;2023-07-29T08:11:53;25.60;70.20
20349;DHT22;10332;50.208;18.988;2023-07-29T08:14:20;25.50;69.80
20349;DHT22;10332;50.208;18.988;2023-07-29T08:16:49;25.40;71.00
20349;DHT22;10332;50.208;18.988;2023-07-29T08:19:16;25.30;72.90
20349;DHT22;10332;50.208;18.988;2023-07-29T08:21:47;25.50;72.90
20349;DHT22;10332;50.208;18.988;2023-07-29T08:24:14;25.70;72.10
20349;DHT22;10332;50.208;18.988;2023-07-29T08:26:42;25.70;66.70
20349;DHT22;10332;50.208;18.988;2023-07-29T08:29:09;25.70;60.90
20349;DHT22;10332;50.208;18.988;2023-07-29T08:31:37;25.60;60.00
20349;DHT22;10332;50.208;18.988;2023-07-29T08:34:04;25.60;59.00
20349;DHT22;10332;50.208;18.988;2023-07-29T08:36:32;25.80;58.10
20349;DHT22;10332;50.208;18.988;2023-07-29T08:39:00;26.20;55.70
20349;DHT22;10332;50.208;18.988;2023-07-29T08:41:51;26.60;53.30
20349;DHT22;10332;50.208;18.988;2023-07-29T08:44:34;26.90;46.70
20349;DHT22;10332;50.208;18.988;2023-07-29T08:47:04;26.90;39.60
20349;DHT22;10332;50.208;18.988;2023-07-29T08:49:33;26.80;41.70
20349;DHT22;10332;50.208;18.988;2023-07-29T08:52:01;26.80;42.30
20349;DHT22;10332;50.208;18.988;2023-07-29T08:54:29;26.70;41.20
20349;DHT22;10332;50.208;18.988;2023-07-29T08:56:57;26.80;39.20
20349;DHT22;10332;50.208;18.988;2023-07-29T08:59:25;27.00;31.90
20349;DHT22;10332;50.208;18.988;2023-07-29T09:01:54;27.20;32.40
20349;DHT22;10332;50.208;18.988;2023-07-29T09:04:24;27.50;25.10
20349;DHT22;10332;50.208;18.988;2023-07-29T09:06:53;27.70;23.00
20349;DHT22;10332;50.208;18.988;2023-07-29T09:09:23;27.80;21.00
20349;DHT22;10332;50.208;18.988;2023-07-29T09:11:53;27.90;20.90
20349;DHT22;10332;50.208;18.988;2023-07-29T09:14:20;27.90;19.00
20349;DHT22;10332;50.208;18.988;2023-07-29T09:16:48;27.90;22.10
20349;DHT22;10332;50.208;18.988;2023-07-29T09:19:16;27.80;23.20
20349;DHT22;10332;50.208;18.988;2023-07-29T09:21:46;27.60;19.80
20349;DHT22;10332;50.208;18.988;2023-07-29T09:24:16;27.20;20.90
20349;DHT22;10332;50.208;18.988;2023-07-29T09:26:50;27.10;23.00
20349;DHT22;10332;50.208;18.988;2023-07-29T09:29:23;27.00;23.40
20349;DHT22;10332;50.208;18.988;2023-07-29T09:31:51;26.70;25.70
20349;DHT22;10332;50.208;18.988;2023-07-29T09:34:18;26.70;26.80
20349;DHT22;10332;50.208;18.988;2023-07-29T09:36:46;26.80;24.60
20349;DHT22;10332;50.208;18.988;2023-07-29T09:39:17;27.10;25.00
20349;DHT22;10332;50.208;18.988;2023-07-29T09:41:47;27.90;16.90
20349;DHT22;10332;50.208;18.988;2023-07-29T09:44:16;30.30;1.00
20349;DHT22;10332;50.208;18.988;2023-07-29T09:46:45;34.20;1.00
20349;DHT22;10332;50.208;18.988;2023-07-29T09:49:13;36.20;1.00
20349;DHT22;10332;50.208;18.988;2023-07-29T09:51:41;39.00;1.00
20349;DHT22;10332;50.208;18.988;2023-07-29T09:54:09;37.00;1.00
20349;DHT22;10332;50.208;18.988;2023-07-29T09:56:41;36.90;1.00
20349;DHT22;10332;50.208;18.988;2023-07-29T09:59:11;39.10;1.00
20349;DHT22;10332;50.208;18.988;2023-07-29T10:01:40;41.80;1.00
20349;DHT22;10332;50.208;18.988;2023-07-29T10:04:09;42.70;1.00
20349;DHT22;10332;50.208;18.988;2023-07-29T10:06:41;43.90;1.00
20349;DHT22;10332;50.208;18.988;2023-07-29T10:09:11;45.40;1.00
20349;DHT22;10332;50.208;18.988;2023-07-29T10:11:41;41.00;1.00
20349;DHT22;10332;50.208;18.988;2023-07-29T10:14:09;39.50;1.00
20349;DHT22;10332;50.208;18.988;2023-07-29T10:16:37;40.00;1.00
20349;DHT22;10332;50.208;18.988;2023-07-29T10:19:09;37.20;1.00
20349;DHT22;10332;50.208;18.988;2023-07-29T10:21:39;35.40;1.00
20349;DHT22;10332;50.208;18.988;2023-07-29T10:24:14;35.40;1.00
20349;DHT22;10332;50.208;18.988;2023-07-29T10:26:46;37.40;1.00
20349;DHT22;10332;50.208;18.988;2023-07-29T10:29:20;38.80;1.00
20349;DHT22;10332;50.208;18.988;2023-07-29T10:31:54;36.90;1.00
20349;DHT22;10332;50.208;18.988;2023-07-29T10:34:25;35.40;1.00
20349;DHT22;10332;50.208;18.988;2023-07-29T10:36:53;34.60;1.00
20349;DHT22;10332;50.208;18.988;2023-07-29T10:39:21;35.90;1.00
20349;DHT22;10332;50.208;18.988;2023-07-29T10:42:06;36.10;1.00
20349;DHT22;10332;50.208;18.988;2023-07-29T10:47:14;37.10;1.00
20349;DHT22;10332;50.208;18.988;2023-07-29T10:49:49;37.70;1.00
20349;DHT22;10332;50.208;18.988;2023-07-29T10:55:03;36.60;1.00
20349;DHT22;10332;50.208;18.988;2023-07-29T10:57:39;36.00;1.00
20349;DHT22;10332;50.208;18.988;2023-07-29T11:00:08;35.40;1.00
20349;DHT22;10332;50.208;18.988;2023-07-29T11:02:38;34.90;1.00
20349;DHT22;10332;50.208;18.988;2023-07-29T11:05:18;33.90;1.00
20349;DHT22;10332;50.208;18.988;2023-07-29T11:07:48;33.00;1.00
20349;DHT22;10332;50.208;18.988;2023-07-29T11:10:15;31.90;1.00
20349;DHT22;10332;50.208;18.988;2023-07-29T11:12:52;31.30;1.00
20349;DHT22;10332;50.208;18.988;2023-07-29T11:15:26;30.80;1.00
20349;DHT22;10332;50.208;18.988;2023-07-29T11:17:56;30.40;1.00
20349;DHT22;10332;50.208;18.988;2023-07-29T11:20:31;30.10;1.00
20349;DHT22;10332;50.208;18.988;2023-07-29T11:23:03;29.70;1.00
20349;DHT22;10332;50.208;18.988;2023-07-29T11:25:31;29.50;1.00
20349;DHT22;10332;50.208;18.988;2023-07-29T11:28:01;29.20;1.00
20349;DHT22;10332;50.208;18.988;2023-07-29T11:30:34;29.00;1.00
20349;DHT22;10332;50.208;18.988;2023-07-29T11:33:01;29.00;1.00
20349;DHT22;10332;50.208;18.988;2023-07-29T11:35:32;28.90;1.00
20349;DHT22;10332;50.208;18.988;2023-07-29T11:38:00;28.90;1.00
20349;DHT22;10332;50.208;18.988;2023-07-29T11:40:28;28.90;1.00
20349;DHT22;10332;50.208;18.988;2023-07-29T11:42:55;28.90;1.00
20349;DHT22;10332;50.208;18.988;2023-07-29T11:45:24;28.60;1.00
20349;DHT22;10332;50.208;18.988;2023-07-29T11:48:02;28.50;1.00
20349;DHT22;10332;50.208;18.988;2023-07-29T11:50:29;28.40;1.00
20349;DHT22;10332;50.208;18.988;2023-07-29T11:52:58;28.20;1.00
20349;DHT22;10332;50.208;18.988;2023-07-29T11:55:25;28.00;1.00
20349;DHT22;10332;50.208;18.988;2023-07-29T11:57:53;27.90;1.00
20349;DHT22;10332;50.208;18.988;2023-07-29T12:00:21;28.00;1.00
20349;DHT22;10332;50.208;18.988;2023-07-29T12:02:49;28.00;1.00
20349;DHT22;10332;50.208;18.988;2023-07-29T12:05:18;28.00;1.00
20349;DHT22;10332;50.208;18.988;2023-07-29T12:07:48;28.10;1.00
20349;DHT22;10332;50.208;18.988;2023-07-29T12:10:17;28.20;1.00
20349;DHT22;10332;50.208;18.988;2023-07-29T12:12:47;28.20;1.00
20349;DHT22;10332;50.208;18.988;2023-07-29T12:15:29;28.20;1.00
20349;DHT22;10332;50.208;18.988;2023-07-29T12:17:58;28.20;1.00
20349;DHT22;10332;50.208;18.988;2023-07-29T12:20:32;28.20;1.00
20349;DHT22;10332;50.208;18.988;2023-07-29T12:23:00;28.40;1.00
20349;DHT22;10332;50.208;18.988;2023-07-29T12:25:33;28.50;1.00
20349;DHT22;10332;50.208;18.988;2023-07-29T12:28:03;28.60;1.00
20349;DHT22;10332;50.208;18.988;2023-07-29T12:30:40;28.80;1.00
20349;DHT22;10332;50.208;18.988;2023-07-29T12:33:09;28.60;1.00
20349;DHT22;10332;50.208;18.988;2023-07-29T12:35:37;28.50;1.00
20349;DHT22;10332;50.208;18.988;2023-07-29T12:38:05;28.60;1.00
20349;DHT22;10332;50.208;18.988;2023-07-29T12:40:33;28.70;1.00
20349;DHT22;10332;50.208;18.988;2023-07-29T12:43:06;28.80;1.00
20349;DHT22;10332;50.208;18.988;2023-07-29T12:45:36;28.90;1.00
20349;DHT22;10332;50.208;18.988;2023-07-29T12:48:10;29.00;1.00
20349;DHT22;10332;50.208;18.988;2023-07-29T12:50:38;29.00;1.00
20349;DHT22;10332;50.208;18.988;2023-07-29T12:53:07;29.00;1.00
20349;DHT22;10332;50.208;18.988;2023-07-29T12:55:37;29.00;1.00
20349;DHT22;10332;50.208;18.988;2023-07-29T12:58:04;29.00;1.00
20349;DHT22;10332;50.208;18.988;2023-07-29T13:00:32;28.90;1.00
20349;DHT22;10332;50.208;18.988;2023-07-29T13:03:00;28.90;1.00
20349;DHT22;10332;50.208;18.988;2023-07-29T13:05:27;28.80;1.00
20349;DHT22;10332;50.208;18.988;2023-07-29T13:07:55;28.70;1.00
20349;DHT22;10332;50.208;18.988;2023-07-29T13:10:22;28.60;1.00
20349;DHT22;10332;50.208;18.988;2023-07-29T13:12:50;28.50;1.00
20349;DHT22;10332;50.208;18.988;2023-07-29T13:15:17;28.40;1.00
20349;DHT22;10332;50.208;18.988;2023-07-29T13:17:45;28.30;1.00
20349;DHT22;10332;50.208;18.988;2023-07-29T13:20:12;28.30;1.00
20349;DHT22;10332;50.208;18.988;2023-07-29T13:22:40;28.30;1.00
20349;DHT22;10332;50.208;18.988;2023-07-29T13:25:07;28.30;1.00
20349;DHT22;10332;50.208;18.988;2023-07-29T13:27:35;28.30;1.00
20349;DHT22;10332;50.208;18.988;2023-07-29T13:30:03;28.40;1.00
20349;DHT22;10332;50.208;18.988;2023-07-29T13:32:31;28.50;1.00
20349;DHT22;10332;50.208;18.988;2023-07-29T13:34:58;28.50;1.00
20349;DHT22;10332;50.208;18.988;2023-07-29T13:37:25;28.60;1.00
20349;DHT22;10332;50.208;18.988;2023-07-29T13:39:53;28.70;1.00
20349;DHT22;10332;50.208;18.988;2023-07-29T13:42:20;28.60;1.00
20349;DHT22;10332;50.208;18.988;2023-07-29T13:44:48;28.50;1.00
20349;DHT22;10332;50.208;18.988;2023-07-29T13:47:15;28.60;1.00
20349;DHT22;10332;50.208;18.988;2023-07-29T13:49:43;28.60;1.00
20349;DHT22;10332;50.208;18.988;2023-07-29T13:52:10;28.60;1.00
20349;DHT22;10332;50.208;18.988;2023-07-29T13:54:38;28.50;1.00
20349;DHT22;10332;50.208;18.988;2023-07-29T13:57:06;28.40;1.00
20349;DHT22;10332;50.208;18.988;2023-07-29T13:59:34;28.40;1.00
20349;DHT22;10332;50.208;18.988;2023-07-29T14:02:02;28.30;1.00
20349;DHT22;10332;50.208;18.988;2023-07-29T14:04:29;28.40;1.00
20349;DHT22;10332;50.208;18.988;2023-07-29T14:06:57;28.30;1.00
20349;DHT22;10332;50.208;18.988;2023-07-29T14:09:26;28.30;1.00
20349;DHT22;10332;50.208;18.988;2023-07-29T14:11:54;28.20;1.00
20349;DHT22;10332;50.208;18.988;2023-07-29T14:14:22;28.00;1.00
20349;DHT22;10332;50.208;18.988;2023-07-29T14:16:49;27.80;1.00
20349;DHT22;10332;50.208;18.988;2023-07-29T14:19:17;27.80;1.00
20349;DHT22;10332;50.208;18.988;2023-07-29T14:21:45;27.80;1.00
20349;DHT22;10332;50.208;18.988;2023-07-29T14:24:12;27.80;1.00
20349;DHT22;10332;50.208;18.988;2023-07-29T14:26:40;27.80;1.00
20349;DHT22;10332;50.208;18.988;2023-07-29T14:29:08;27.80;1.00
20349;DHT22;10332;50.208;18.988;2023-07-29T14:31:36;27.80;1.00
20349;DHT22;10332;50.208;18.988;2023-07-29T14:34:03;27.80;1.00
20349;DHT22;10332;50.208;18.988;2023-07-29T14:36:31;27.80;1.00
20349;DHT22;10332;50.208;18.988;2023-07-29T14:38:58;27.80;1.00
20349;DHT22;10332;50.208;18.988;2023-07-29T14:41:26;27.80;1.00
20349;DHT22;10332;50.208;18.988;2023-07-29T14:43:53;27.90;1.00
20349;DHT22;10332;50.208;18.988;2023-07-29T14:46:21;27.80;1.00
20349;DHT22;10332;50.208;18.988;2023-07-29T14:48:48;27.80;1.00
20349;DHT22;10332;50.208;18.988;2023-07-29T14:51:16;27.70;1.00
20349;DHT22;10332;50.208;18.988;2023-07-29T14:53:43;27.80;1.00
20349;DHT22;10332;50.208;18.988;2023-07-29T14:56:11;27.90;1.00
20349;DHT22;10332;50.208;18.988;2023-07-29T14:58:40;27.80;1.00
20349;DHT22;10332;50.208;18.988;2023-07-29T15:01:08;27.90;1.00
20349;DHT22;10332;50.208;18.988;2023-07-29T15:03:35;27.90;1.00
20349;DHT22;10332;50.208;18.988;2023-07-29T15:06:03;27.80;1.00
20349;DHT22;10332;50.208;18.988;2023-07-29T15:08:30;27.70;1.00
20349;DHT22;10332;50.208;18.988;2023-07-29T15:10:58;27.80;1.00
20349;DHT22;10332;50.208;18.988;2023-07-29T15:13:25;27.70;1.00
20349;DHT22;10332;50.208;18.988;2023-07-29T15:15:53;27.60;1.00
20349;DHT22;10332;50.208;18.988;2023-07-29T15:18:20;27.40;1.00
20349;DHT22;10332;50.208;18.988;2023-07-29T15:20:48;27.40;1.00
20349;DHT22;10332;50.208;18.988;2023-07-29T15:23:15;27.40;1.00
20349;DHT22;10332;50.208;18.988;2023-07-29T15:25:43;27.50;1.10
20349;DHT22;10332;50.208;18.988;2023-07-29T15:28:10;27.40;1.00
20349;DHT22;10332;50.208;18.988;2023-07-29T15:30:38;27.50;1.00
20349;DHT22;10332;50.208;18.988;2023-07-29T15:33:09;27.40;1.00
20349;DHT22;10332;50.208;18.988;2023-07-29T15:35:38;27.40;1.00
20349;DHT22;10332;50.208;18.988;2023-07-29T15:38:07;27.40;1.00
20349;DHT22;10332;50.208;18.988;2023-07-29T15:40:34;27.30;1.00
20349;DHT22;10332;50.208;18.988;2023-07-29T15:43:02;27.20;1.00